Hood Army Air Field
KHLR : rendu visible

Aérodrome :











RETROUVEZ-NOUS SUR...

 
LOGIN :

S'inscrire | Disclaimer

   EN    FR    IT 

 









Légende :    VFR   VFR Marginal   IFR   IFR Intensif   IFR Très Intensif
Visi : 
Plafond : 
>= 8 km
>= 3000ft
5 à 8 km
1000 à 3000 ft
1500m à 5 km
500 à 1000 ft
800 à 1500m
200 à 500 ft
< 800m
< 200 ft
Symboles :   Orages  Brouillard  Fortes neiges  Fortes précipitations  Vent > 20 kt







- Altitude de l'aérodrome : 924 ft


KHLR - Hood Army Air Field

DERNIER METAR :
  • 191458Z AUTO 29010KT 10SM M 26/21 A2984 RMK AO2 SLP094 T02600212 50014 $

METARs EXPIRÉS :
  • 191358Z AUTO 26008KT 10SM M 25/22 A2984 RMK AO2 SLP094 T02510218 $
  • 191258Z AUTO 22005KT 10SM M 25/22 A2981 RMK AO2 SLP083 T02450218 $

TAF N/A
FIR KZHU / Amérique du Nord



MET'MAP, la Météo Aéronautique d'un coup d'oeil ! - Copyright ORBIFLY Décembre 2007 - Disclaimer

ORBIFLY MET'MAP TEAM :

Programmation & Développement : Alexandra Zaïnal
Conception & Développement : Baudouin d'Aumeries
Co-Programmation & Développement : Marc-Olivier Méhu
Soutien technique & logistique : Manuel Goepfert

Contact : metmap@orbifly.com




SOURCES & CREDITS :

   NOAA       Earth
Advisory